KSMF data

Available data for KSMF from the past 2 hours
SACRAMENTO/METRO, CA
Metar
KSMF 241753Z 18006KT 10SM FEW250 19/12 A3000 RMK AO2 SLP157 T01940122 10200 20122 51004

17:53 UTC

Wind: 180° 6kt

Visibility: 10 SM

Sky: FEW 25000 ft

Temp: 19 deg C / 66.2 deg F

Dewpoint: 12 deg C / 53.6 deg F

Pressure: 30 inHg

TAF
KSMF 241738Z 2418/2518 18008KT P6SM SCT040 BKN250 FM251100 16009KT P6SM OVC025
Pireps (9)
APC UA /OV KAPC242004/TM 1729/FL017/TP C25A/SK OVC017/RM DURD
MHR UA /OV MHR04005/TM 1708/FL015/TP BE33/SK 020BKN 025BKN/WX 10/TA 18/WV 18004G12
SFO UA /OV APC/TM 1702/FL020/TP C172/SK 015-TOP025/RM ZOA CWSU
OAK UA /OV OAK300005/TM 1700/FL030/TP B737/SK 023 BASES 027 TOPS/RM DURC
SFO UA /OV SFO340004/TM 1700/FL030/TP E135/SK TOP030/RM INDEFINITE BASES
UKI UA /OV STS/TM 1658/FL026/TP C172/SK TOP026/RM ZOA CWSU
AUN UA /OV AUN180006/TM 1647/FL020/TP J3/WX FV10SM/RM FG BLO
HWD UA /OV HWD/TM 1634/FL024/TP C25B/SK BKN
ARP UAL768 3910N 12016W 1620 F350 TB NONE SK CLEAR IC NONE